Loma, Colorado
Current Conditions -  °F | °C
As of 4:53 AM on Monday 22 Dec 2014 (Local Time) from KGJT Reporting Station
Clear Clear  
Wind Chill: 26°   Ceiling: Unl
Heat Index: 32°   Visibility: 8mi
Dew Point: 31°   Wind: 7mph
Humidity: 96%   Direction: 100°E
Pressure: 29.88"   Gusts: NA
Location:  39.2°N, 108.82°W
Report Text: KGJT 221153Z AUTO 10006KT 8SM CLR 00/M01 A2988 RMK AO2 SLP126 70004 T00001006 10011 21006 58001
Loading
Personal Weather Stations






























Interactive Weather Map New forecast layout! Learn more

10-Day Weather Forecast

Advertisements
Track Severe Weather on mobile